Time;durP1;ratioP1;P1;durP2;ratioP2;P2;SDS_P1;SDS_P2;PMS_P1;PMS_P2;Temp;Humidity;BMP_temperature;BMP_pressure;BME280_temperature;BME280_humidity;BME280_pressure;Samples;Min_cycle;Max_cycle;Signal;HPM_P1;HPM_P2
2022/06/08 00:00:00;;;;;;;24.13;14.43;;;;;;;;;;5038088;27;94418;-74
2022/06/08 00:02:27;;;;;;;22.50;13.85;;;;;;;;;;5055473;27;92438;-74
2022/06/08 00:04:54;;;;;;;24.40;14.45;;;;;;;;;;5055789;27;92891;-75
2022/06/08 00:07:20;;;;;;;20.05;14.10;;;;;;;;;;5058473;27;93497;-74
2022/06/08 00:09:46;;;;;;;23.17;14.50;;;;;;;;;;5055836;27;93200;-74
2022/06/08 00:12:13;;;;;;;22.20;14.38;;;;;;;;;;5056094;27;94226;-75
2022/06/08 00:14:39;;;;;;;26.20;15.52;;;;;;;;;;5056011;27;91759;-75
2022/06/08 00:17:05;;;;;;;28.77;14.80;;;;;;;;;;5055337;27;93736;-74
2022/06/08 00:19:32;;;;;;;26.33;15.07;;;;;;;;;;5055193;27;93348;-75
2022/06/08 00:21:58;;;;;;;33.85;16.05;;;;;;;;;;5052803;27;95119;-74
2022/06/08 00:24:25;;;;;;;26.15;14.55;;;;;;;;;;5037347;27;95765;-74
2022/06/08 00:26:51;;;;;;;25.45;15.73;;;;;;;;;;5055260;27;93401;-75
2022/06/08 00:29:17;;;;;;;24.45;15.55;;;;;;;;;;5058056;27;92380;-74
2022/06/08 00:31:44;;;;;;;26.63;15.88;;;;;;;;;;5054485;27;93440;-74
2022/06/08 00:34:10;;;;;;;25.88;16.20;;;;;;;;;;5054480;27;92541;-74
2022/06/08 00:36:37;;;;;;;27.13;16.00;;;;;;;;;;5055144;27;93322;-74
2022/06/08 00:39:04;;;;;;;26.67;15.27;;;;;;;;;;5056246;27;94839;-75
2022/06/08 00:41:36;;;;;;;25.80;15.65;;;;;;;;;;5055235;27;92376;-74
2022/06/08 00:44:04;;;;;;;24.75;15.73;;;;;;;;;;5055114;27;93068;-74
2022/06/08 00:46:30;;;;;;;29.77;16.65;;;;;;;;;;5052382;27;95873;-74
2022/06/08 00:49:00;;;;;;;26.95;16.52;;;;;;;;;;5055053;27;92411;-75
2022/06/08 00:51:26;;;;;;;30.55;16.38;;;;;;;;;;5057773;27;93181;-75
2022/06/08 00:53:59;;;;;;;26.98;15.80;;;;;;;;;;5054907;27;92437;-75
2022/06/08 00:56:36;;;;;;;26.92;16.40;;;;;;;;;;5037672;27;94505;-75
2022/06/08 00:59:03;;;;;;;31.60;16.92;;;;;;;;;;5054905;27;93536;-75
2022/06/08 01:01:30;;;;;;;32.38;16.83;;;;;;;;;;5054325;27;92386;-74
2022/06/08 01:04:05;;;;;;;25.90;15.95;;;;;;;;;;5055328;27;92083;-75
2022/06/08 01:06:31;;;;;;;28.40;16.27;;;;;;;;;;5054532;27;93207;-74
2022/06/08 01:08:58;;;;;;;26.48;16.80;;;;;;;;;;5055104;27;92563;-74
2022/06/08 01:11:38;;;;;;;26.17;16.35;;;;;;;;;;5053476;27;94765;-75
2022/06/08 01:14:06;;;;;;;27.73;15.77;;;;;;;;;;5057592;27;94550;-74
2022/06/08 01:16:33;;;;;;;29.08;16.55;;;;;;;;;;5053791;27;93036;-75
2022/06/08 01:19:03;;;;;;;25.83;15.80;;;;;;;;;;5036829;27;94342;-74
2022/06/08 01:21:29;;;;;;;;;;;;;;;;;;5054792;27;92512;-75
2022/06/08 01:24:00;;;;;;;28.52;16.13;;;;;;;;;;5056281;27;123380;-75
2022/06/08 01:26:34;;;;;;;32.00;17.33;;;;;;;;;;5054298;27;93276;-74
2022/06/08 01:29:12;;;;;;;27.55;16.65;;;;;;;;;;5055362;27;92043;-74
2022/06/08 01:31:57;;;;;;;28.75;16.50;;;;;;;;;;5054258;27;93394;-74
2022/06/08 01:34:29;;;;;;;28.23;16.58;;;;;;;;;;5057248;27;93985;-75
2022/06/08 01:37:03;;;;;;;26.48;16.48;;;;;;;;;;5053211;27;94756;-74
2022/06/08 01:39:29;;;;;;;24.88;16.85;;;;;;;;;;5054305;27;93307;-74
2022/06/08 01:41:55;;;;;;;29.45;16.95;;;;;;;;;;5054310;27;92470;-75
2022/06/08 01:44:27;;;;;;;29.85;16.38;;;;;;;;;;5054737;27;92906;-74
2022/06/08 01:47:02;;;;;;;30.48;16.13;;;;;;;;;;5053547;27;93488;-74
2022/06/08 01:49:45;;;;;;;30.52;17.00;;;;;;;;;;5054360;27;92362;-74
2022/06/08 01:52:23;;;;;;;27.45;15.68;;;;;;;;;;5054231;27;93447;-74
2022/06/08 01:55:09;;;;;;;32.65;16.27;;;;;;;;;;5054436;27;92339;-74
2022/06/08 01:57:48;;;;;;;31.60;16.58;;;;;;;;;;5057120;27;92473;-74
2022/06/08 02:00:16;;;;;;;30.67;16.67;;;;;;;;;;5053036;27;93525;-74
2022/06/08 02:02:42;;;;;;;26.23;16.60;;;;;;;;;;5053423;27;94834;-75
2022/06/08 02:05:12;;;;;;;27.88;15.98;;;;;;;;;;5058119;27;99031;-74
2022/06/08 02:07:44;;;;;;;23.00;15.40;;;;;;;;;;5057369;27;92570;-75
2022/06/08 02:10:29;;;;;;;33.70;17.60;;;;;;;;;;5057217;27;92350;-74
2022/06/08 02:12:58;;;;;;;28.50;17.42;;;;;;;;;;5057660;27;92996;-74
2022/06/08 02:15:30;;;;;;;30.42;16.08;;;;;;;;;;5056215;27;93422;-74
2022/06/08 02:17:58;;;;;;;28.17;16.20;;;;;;;;;;5057865;27;92370;-75
2022/06/08 02:20:33;;;;;;;26.17;16.73;;;;;;;;;;5060698;27;92913;-75
2022/06/08 02:23:08;;;;;;;25.73;16.15;;;;;;;;;;5056227;27;92452;-75
2022/06/08 02:25:43;;;;;;;27.95;15.35;;;;;;;;;;5037110;27;92287;-74
2022/06/08 02:28:12;;;;;;;27.08;16.08;;;;;;;;;;5035341;28;95998;-75
2022/06/08 02:30:42;;;;;;;27.15;16.30;;;;;;;;;;5046643;27;92474;-75
2022/06/08 02:35:59;;;;;;;26.80;16.05;;;;;;;;;;5056993;27;93476;-74
2022/06/08 02:38:31;;;;;;;29.08;16.60;;;;;;;;;;5057216;27;92299;-74
2022/06/08 02:40:58;;;;;;;26.85;17.08;;;;;;;;;;5057322;27;93220;-78
2022/06/08 02:43:30;;;;;;;27.33;16.90;;;;;;;;;;5060107;27;93446;-74
2022/06/08 02:46:10;;;;;;;27.88;17.33;;;;;;;;;;5057165;27;94343;-74
2022/06/08 02:48:36;;;;;;;28.67;18.33;;;;;;;;;;5057099;27;93628;-74
2022/06/08 02:51:04;;;;;;;29.80;18.15;;;;;;;;;;5056998;27;92459;-74
2022/06/08 02:53:30;;;;;;;31.02;17.23;;;;;;;;;;5055377;27;95154;-74
2022/06/08 02:56:07;;;;;;;31.33;18.52;;;;;;;;;;5056882;27;93283;-75
2022/06/08 02:58:34;;;;;;;26.05;17.50;;;;;;;;;;5056737;27;92366;-75
2022/06/08 03:01:03;;;;;;;32.83;18.80;;;;;;;;;;5056596;27;95419;-75
2022/06/08 03:03:39;;;;;;;32.90;19.15;;;;;;;;;;5057402;27;94324;-75
2022/06/08 03:06:11;;;;;;;25.50;18.05;;;;;;;;;;5060372;27;92964;-74
2022/06/08 03:08:42;;;;;;;35.17;19.45;;;;;;;;;;5056519;27;93501;-74
2022/06/08 03:11:09;;;;;;;34.00;20.00;;;;;;;;;;5057130;27;91688;-74
2022/06/08 03:13:45;;;;;;;30.65;19.70;;;;;;;;;;5056451;27;92275;-74
2022/06/08 03:16:25;;;;;;;31.50;20.02;;;;;;;;;;5056774;27;93303;-75
2022/06/08 03:18:52;;;;;;;29.13;20.30;;;;;;;;;;5055199;27;94957;-74
2022/06/08 03:21:18;;;;;;;36.35;20.83;;;;;;;;;;5056475;27;96571;-75
2022/06/08 03:23:46;;;;;;;37.22;21.70;;;;;;;;;;5048391;27;93476;-74
2022/06/08 03:26:13;;;;;;;34.55;22.10;;;;;;;;;;5036146;28;92424;-75
2022/06/08 03:28:40;;;;;;;32.53;22.45;;;;;;;;;;5040625;27;93213;-74
2022/06/08 03:31:06;;;;;;;34.17;23.05;;;;;;;;;;5056122;27;92372;-74
2022/06/08 03:33:32;;;;;;;34.65;23.52;;;;;;;;;;5056520;27;92876;-74
2022/06/08 03:35:59;;;;;;;37.67;23.65;;;;;;;;;;5056587;27;92725;-75
2022/06/08 03:38:25;;;;;;;37.75;23.38;;;;;;;;;;5056135;27;92369;-75
2022/06/08 03:40:51;;;;;;;40.88;23.30;;;;;;;;;;5056170;27;93221;-75
2022/06/08 03:43:18;;;;;;;43.10;25.48;;;;;;;;;;5053813;27;95908;-74
2022/06/08 03:45:47;;;;;;;35.65;23.40;;;;;;;;;;5056013;27;92406;-74
2022/06/08 03:48:14;;;;;;;41.83;24.42;;;;;;;;;;5059185;27;94278;-74
2022/06/08 03:50:41;;;;;;;38.10;25.58;;;;;;;;;;5056448;27;92381;-75
2022/06/08 03:53:13;;;;;;;36.60;24.55;;;;;;;;;;5038345;27;94708;-75
2022/06/08 03:55:40;;;;;;;40.25;24.52;;;;;;;;;;5055891;27;93535;-75
2022/06/08 03:58:07;;;;;;;39.78;25.33;;;;;;;;;;5055173;27;92477;-74
2022/06/08 04:00:34;;;;;;;37.90;25.45;;;;;;;;;;5055939;27;93248;-74
2022/06/08 04:03:01;;;;;;;45.72;26.08;;;;;;;;;;5055787;27;93443;-74
2022/06/08 04:05:28;;;;;;;38.72;25.60;;;;;;;;;;5056258;27;92420;-75
2022/06/08 04:07:54;;;;;;;41.47;25.60;;;;;;;;;;5054555;27;94832;-75
2022/06/08 04:10:20;;;;;;;41.58;25.85;;;;;;;;;;5058975;27;93752;-74
2022/06/08 04:12:47;;;;;;;39.03;25.23;;;;;;;;;;5054652;27;93652;-74
2022/06/08 04:15:41;;;;;;;46.65;26.02;;;;;;;;;;5055547;27;93012;-74
2022/06/08 04:17:59;;;;;;;42.78;25.10;;;;;;;;;;5055435;27;92413;-75
2022/06/08 04:20:26;;;;;;;36.30;24.90;;;;;;;;;;5054910;27;93063;-75
2022/06/08 04:22:52;;;;;;;43.78;26.38;;;;;;;;;;5055074;27;92383;-75
2022/06/08 04:25:18;;;;;;;39.83;24.23;;;;;;;;;;5035263;27;91742;-74
2022/06/08 04:27:45;;;;;;;38.58;25.35;;;;;;;;;;5037480;27;92438;-74
2022/06/08 04:30:11;;;;;;;38.17;24.55;;;;;;;;;;5055259;27;93208;-75
2022/06/08 04:32:38;;;;;;;37.55;25.35;;;;;;;;;;5057430;27;94785;-74
2022/06/08 04:35:04;;;;;;;36.92;24.48;;;;;;;;;;5055109;27;93117;-74
2022/06/08 04:37:31;;;;;;;34.92;23.67;;;;;;;;;;5055209;27;92426;-74
2022/06/08 04:39:57;;;;;;;35.35;25.52;;;;;;;;;;5055575;27;93541;-74
2022/06/08 04:42:23;;;;;;;34.88;23.30;;;;;;;;;;5053916;27;93502;-74
2022/06/08 04:44:49;;;;;;;36.88;23.55;;;;;;;;;;5055078;27;92880;-75
2022/06/08 04:47:16;;;;;;;37.67;24.25;;;;;;;;;;5054659;27;93336;-74
2022/06/08 04:49:43;;;;;;;36.50;24.08;;;;;;;;;;5055848;27;92576;-75
2022/06/08 04:52:09;;;;;;;36.50;23.15;;;;;;;;;;5037338;27;92912;-75
2022/06/08 04:54:35;;;;;;;34.50;22.88;;;;;;;;;;5058095;27;93226;-74
2022/06/08 04:57:08;;;;;;;34.08;22.40;;;;;;;;;;5052649;27;95171;-74
2022/06/08 04:59:35;;;;;;;37.88;23.48;;;;;;;;;;5054793;27;96018;-74
2022/06/08 05:02:01;;;;;;;32.40;21.95;;;;;;;;;;5054745;27;93504;-74
2022/06/08 05:04:27;;;;;;;26.80;20.83;;;;;;;;;;5055093;27;92315;-74
2022/06/08 05:06:53;;;;;;;30.55;21.50;;;;;;;;;;5054521;27;93021;-75
2022/06/08 05:09:20;;;;;;;33.83;20.50;;;;;;;;;;5054561;27;92428;-74
2022/06/08 05:11:46;;;;;;;34.70;20.38;;;;;;;;;;5035554;27;92394;-74
2022/06/08 05:14:14;;;;;;;31.55;20.60;;;;;;;;;;5055341;27;93533;-74
2022/06/08 05:16:40;;;;;;;27.30;19.13;;;;;;;;;;5057512;27;93470;-74
2022/06/08 05:19:06;;;;;;;26.45;18.23;;;;;;;;;;5054640;27;93032;-74
2022/06/08 05:21:33;;;;;;;24.75;18.02;;;;;;;;;;5052924;27;95659;-75
2022/06/08 05:24:05;;;;;;;36.13;19.55;;;;;;;;;;5043827;27;92494;-74
2022/06/08 05:26:31;;;;;;;24.08;17.58;;;;;;;;;;5035590;27;93001;-74
2022/06/08 05:28:57;;;;;;;28.45;18.75;;;;;;;;;;5054704;27;94256;-74
2022/06/08 05:31:27;;;;;;;24.92;17.02;;;;;;;;;;5054454;27;92398;-74
2022/06/08 05:33:56;;;;;;;25.05;18.00;;;;;;;;;;5054761;27;93194;-75
2022/06/08 05:36:23;;;;;;;25.53;18.60;;;;;;;;;;5036255;27;94612;-74
2022/06/08 05:38:50;;;;;;;24.00;18.05;;;;;;;;;;5057211;27;91554;-74
2022/06/08 05:41:16;;;;;;;34.70;18.63;;;;;;;;;;5053287;27;93503;-74
2022/06/08 05:43:42;;;;;;;26.50;18.23;;;;;;;;;;5054344;27;92550;-75
2022/06/08 05:46:09;;;;;;;23.08;17.95;;;;;;;;;;5052595;27;94765;-75
2022/06/08 05:48:35;;;;;;;26.02;17.90;;;;;;;;;;5053947;27;93349;-74
2022/06/08 05:51:02;;;;;;;24.25;17.42;;;;;;;;;;5054725;27;92355;-75
2022/06/08 05:53:28;;;;;;;26.60;18.25;;;;;;;;;;5054147;27;93209;-74
2022/06/08 05:55:54;;;;;;;27.52;17.63;;;;;;;;;;5053262;27;93843;-74
2022/06/08 05:58:21;;;;;;;24.73;16.25;;;;;;;;;;5039088;27;92433;-74
2022/06/08 06:00:48;;;;;;;31.25;17.92;;;;;;;;;;5054171;27;93221;-75
2022/06/08 06:03:14;;;;;;;22.52;15.75;;;;;;;;;;5054744;27;91625;-75
2022/06/08 06:05:40;;;;;;;25.58;15.73;;;;;;;;;;5053575;27;92690;-75
2022/06/08 06:08:07;;;;;;;22.42;15.07;;;;;;;;;;5054015;27;94455;-74
2022/06/08 06:10:34;;;;;;;26.17;15.93;;;;;;;;;;5052178;27;96202;-74
2022/06/08 06:13:01;;;;;;;34.10;15.55;;;;;;;;;;5052845;27;94634;-74
2022/06/08 06:15:27;;;;;;;24.20;15.40;;;;;;;;;;5035729;27;93541;-75
2022/06/08 06:17:54;;;;;;;26.33;14.10;;;;;;;;;;5053883;27;92451;-74
2022/06/08 06:20:20;;;;;;;19.92;13.77;;;;;;;;;;5056169;27;92790;-74
2022/06/08 06:22:47;;;;;;;19.63;13.93;;;;;;;;;;5053002;27;92549;-75
2022/06/08 06:25:13;;;;;;;20.98;12.85;;;;;;;;;;5054152;27;94298;-75
2022/06/08 06:27:39;;;;;;;16.90;12.55;;;;;;;;;;5054068;27;93002;-75
2022/06/08 06:30:06;;;;;;;17.80;12.00;;;;;;;;;;5035686;27;92482;-75
2022/06/08 06:32:34;;;;;;;17.65;12.18;;;;;;;;;;5054158;27;94300;-74
2022/06/08 06:35:01;;;;;;;16.73;10.93;;;;;;;;;;5051625;27;95577;-75
2022/06/08 06:37:29;;;;;;;17.98;12.00;;;;;;;;;;5052855;27;92465;-74
2022/06/08 06:39:56;;;;;;;20.00;11.30;;;;;;;;;;5053784;27;93233;-75
2022/06/08 06:42:25;;;;;;;14.82;10.70;;;;;;;;;;5057000;27;94430;-74
2022/06/08 06:44:51;;;;;;;12.63;9.43;;;;;;;;;;5054109;27;94212;-75
2022/06/08 06:47:18;;;;;;;14.68;10.10;;;;;;;;;;5053836;27;93454;-74
2022/06/08 06:49:44;;;;;;;12.43;9.90;;;;;;;;;;5056154;27;92794;-75
2022/06/08 06:52:12;;;;;;;11.98;9.10;;;;;;;;;;5057345;27;92865;-75
2022/06/08 06:54:39;;;;;;;15.60;8.95;;;;;;;;;;5057764;27;93498;-75
2022/06/08 06:57:05;;;;;;;13.13;8.50;;;;;;;;;;5039747;27;92755;-75
2022/06/08 06:59:31;;;;;;;13.10;7.70;;;;;;;;;;5056020;27;95229;-75
2022/06/08 07:01:58;;;;;;;10.88;7.53;;;;;;;;;;5057340;27;92385;-75
2022/06/08 07:04:25;;;;;;;10.13;7.03;;;;;;;;;;5059767;27;92552;-74
2022/06/08 07:06:51;;;;;;;10.50;7.82;;;;;;;;;;5057504;27;93212;-75
2022/06/08 07:09:17;;;;;;;11.55;8.05;;;;;;;;;;5057874;27;92363;-75
2022/06/08 07:11:43;;;;;;;10.15;7.05;;;;;;;;;;5057496;27;92944;-75
2022/06/08 07:14:12;;;;;;;13.05;7.13;;;;;;;;;;5057307;27;93208;-75
2022/06/08 07:16:39;;;;;;;13.63;7.25;;;;;;;;;;5057953;27;91655;-75
2022/06/08 07:19:06;;;;;;;11.73;7.18;;;;;;;;;;5056610;27;92932;-75
2022/06/08 07:21:32;;;;;;;8.77;7.20;;;;;;;;;;5057235;27;93239;-74
2022/06/08 07:23:59;;;;;;;7.45;6.63;;;;;;;;;;5055450;27;94804;-75
2022/06/08 07:26:25;;;;;;;12.35;6.45;;;;;;;;;;5060393;27;95325;-75
2022/06/08 07:28:52;;;;;;;13.07;6.57;;;;;;;;;;5055874;27;93012;-75
2022/06/08 07:31:19;;;;;;;8.20;6.03;;;;;;;;;;5057360;27;94186;-75
2022/06/08 07:33:46;;;;;;;8.30;6.63;;;;;;;;;;5057057;27;93086;-75
2022/06/08 07:36:13;;;;;;;8.02;5.38;;;;;;;;;;5057145;27;92436;-75
2022/06/08 07:38:40;;;;;;;10.43;6.03;;;;;;;;;;5055961;27;93549;-75
2022/06/08 07:41:07;;;;;;;9.27;6.00;;;;;;;;;;5039284;27;92775;-75
2022/06/08 07:43:38;;;;;;;9.10;5.88;;;;;;;;;;5056791;27;92463;-75
2022/06/08 07:46:05;;;;;;;8.05;5.55;;;;;;;;;;5059717;27;93128;-75
2022/06/08 07:51:17;;;;;;;7.85;5.35;;;;;;;;;;5055838;27;95355;-75
2022/06/08 07:53:43;;;;;;;10.63;6.00;;;;;;;;;;5057270;27;96240;-74
2022/06/08 07:56:10;;;;;;;8.50;5.65;;;;;;;;;;5056354;27;92482;-74
2022/06/08 07:58:36;;;;;;;9.50;5.10;;;;;;;;;;5056483;27;93313;-75
2022/06/08 08:01:02;;;;;;;9.52;5.20;;;;;;;;;;5055775;27;93303;-75
2022/06/08 08:03:29;;;;;;;11.30;5.85;;;;;;;;;;5038566;27;92586;-75
2022/06/08 08:05:55;;;;;;;13.07;6.00;;;;;;;;;;5038595;27;94045;-75
2022/06/08 08:08:21;;;;;;;11.35;5.57;;;;;;;;;;5059523;27;94075;-75
2022/06/08 08:10:48;;;;;;;11.00;4.80;;;;;;;;;;5056582;27;93173;-74
2022/06/08 08:13:14;;;;;;;14.27;4.85;;;;;;;;;;5054782;27;97175;-72
2022/06/08 08:15:41;;;;;;;9.25;4.55;;;;;;;;;;5056287;27;92399;-73
2022/06/08 08:18:08;;;;;;;7.07;4.28;;;;;;;;;;5056325;27;92335;-72
2022/06/08 08:20:35;;;;;;;7.53;4.47;;;;;;;;;;5055738;27;93386;-75
2022/06/08 08:23:02;;;;;;;4.47;4.00;;;;;;;;;;5056332;27;92419;-73
2022/06/08 08:25:29;;;;;;;9.98;4.60;;;;;;;;;;5056378;27;93012;-73
2022/06/08 08:27:57;;;;;;;6.05;4.60;;;;;;;;;;5055977;27;93119;-73
2022/06/08 08:30:24;;;;;;;13.95;4.47;;;;;;;;;;5059982;27;91679;-73
2022/06/08 08:32:50;;;;;;;5.88;4.43;;;;;;;;;;5056416;27;94377;-73
2022/06/08 08:35:17;;;;;;;6.93;4.30;;;;;;;;;;5056028;27;92695;-73
2022/06/08 08:37:44;;;;;;;10.88;4.43;;;;;;;;;;5054619;27;94750;-72
2022/06/08 08:40:16;;;;;;;8.10;4.00;;;;;;;;;;5055770;27;93792;-73
2022/06/08 08:42:43;;;;;;;10.52;4.75;;;;;;;;;;5056267;27;92335;-73
2022/06/08 08:45:13;;;;;;;7.65;3.92;;;;;;;;;;5055672;27;93034;-73
2022/06/08 08:47:46;;;;;;;9.00;4.47;;;;;;;;;;5055109;27;93311;-72
2022/06/08 08:50:16;;;;;;;12.00;4.18;;;;;;;;;;5055914;27;92408;-74
2022/06/08 08:53:11;;;;;;;8.68;3.92;;;;;;;;;;5058785;27;93212;-73
2022/06/08 08:55:47;;;;;;;11.10;4.50;;;;;;;;;;5034171;27;93007;-73
2022/06/08 08:58:16;;;;;;;14.18;4.55;;;;;;;;;;5056407;27;93528;-74
2022/06/08 09:00:43;;;;;;;10.43;4.17;;;;;;;;;;5055840;27;95364;-72
2022/06/08 09:03:20;;;;;;;12.75;3.85;;;;;;;;;;5053793;27;94848;-73
2022/06/08 09:05:48;;;;;;;10.32;3.85;;;;;;;;;;5055103;27;95870;-73
2022/06/08 09:08:16;;;;;;;9.80;4.47;;;;;;;;;;5055065;27;93281;-73
2022/06/08 09:10:49;;;;;;;11.30;3.97;;;;;;;;;;5056136;27;92340;-73
2022/06/08 09:13:29;;;;;;;7.97;3.90;;;;;;;;;;5055209;27;94322;-73
2022/06/08 09:15:57;;;;;;;7.45;3.85;;;;;;;;;;5040766;27;94602;-73
2022/06/08 09:18:34;;;;;;;7.95;3.85;;;;;;;;;;5054760;27;92965;-73
2022/06/08 09:21:19;;;;;;;9.98;4.10;;;;;;;;;;5049716;27;93219;-73
2022/06/08 09:23:48;;;;;;;9.32;4.63;;;;;;;;;;5075535;27;92440;-73
2022/06/08 09:26:23;;;;;;;29.83;3.67;;;;;;;;;;5075703;27;93582;-73
2022/06/08 09:28:58;;;;;;;10.07;3.70;;;;;;;;;;5072577;27;95843;-73
2022/06/08 09:31:26;;;;;;;8.80;3.78;;;;;;;;;;5075636;27;92462;-73
2022/06/08 09:34:05;;;;;;;11.70;4.22;;;;;;;;;;5057603;27;93142;-72
2022/06/08 09:36:31;;;;;;;5.78;3.45;;;;;;;;;;5075592;27;93716;-74
2022/06/08 09:38:58;;;;;;;12.95;3.95;;;;;;;;;;5079239;27;92921;-73
2022/06/08 09:41:27;;;;;;;9.65;3.80;;;;;;;;;;5075498;27;94058;-73
2022/06/08 09:44:03;;;;;;;7.15;3.53;;;;;;;;;;5075134;27;92408;-73
2022/06/08 09:52:14;;;;;;;8.10;3.78;;;;;;;;;;5075639;27;92504;-73
2022/06/08 09:54:47;;;;;;;10.48;3.75;;;;;;;;;;5073687;27;94811;-72
2022/06/08 09:57:24;;;;;;;18.88;3.85;;;;;;;;;;5074300;27;94029;-73
2022/06/08 10:00:08;;;;;;;7.05;3.30;;;;;;;;;;5060425;27;92850;-73
2022/06/08 10:02:52;;;;;;;6.25;2.28;;;;;;;;;;5057490;27;94313;-73
2022/06/08 10:05:23;;;;;;;10.75;2.72;;;;;;;;;;5074946;27;92363;-73
2022/06/08 10:08:19;;;;;;;9.15;2.92;;;;;;;;;;5075334;27;92803;-73
2022/06/08 10:11:04;;;;;;;12.45;2.50;;;;;;;;;;5053009;27;92466;-73
2022/06/08 10:13:39;;;;;;;11.90;2.80;;;;;;;;;;5075127;27;91881;-73
2022/06/08 10:16:16;;;;;;;6.82;2.47;;;;;;;;;;5065234;27;92454;-73
2022/06/08 10:18:46;;;;;;;10.25;2.72;;;;;;;;;;5054605;27;93619;-73
2022/06/08 10:21:26;;;;;;;7.40;2.08;;;;;;;;;;5052754;27;94899;-73
2022/06/08 10:23:55;;;;;;;13.68;2.40;;;;;;;;;;5066708;27;95692;-73
2022/06/08 10:26:34;;;;;;;10.82;2.75;;;;;;;;;;5079194;27;92642;-73
2022/06/08 10:29:03;;;;;;;11.90;2.58;;;;;;;;;;5094554;27;93345;-73
2022/06/08 10:31:29;;;;;;;12.35;2.70;;;;;;;;;;5078991;27;95146;-73
2022/06/08 10:34:03;;;;;;;8.57;2.88;;;;;;;;;;5078058;27;92455;-73
2022/06/08 10:36:34;;;;;;;11.05;2.45;;;;;;;;;;5078835;27;94261;-73
2022/06/08 10:39:02;;;;;;;8.90;2.00;;;;;;;;;;5078671;27;92748;-73
2022/06/08 10:44:26;;;;;;;7.38;2.13;;;;;;;;;;5046511;27;93253;-73
2022/06/08 10:46:53;;;;;;;6.25;1.85;;;;;;;;;;5061184;27;96003;-73
2022/06/08 10:49:19;;;;;;;6.35;1.60;;;;;;;;;;5076943;27;95912;-73
2022/06/08 10:52:05;;;;;;;13.65;2.13;;;;;;;;;;5077614;27;94528;-73
2022/06/08 10:57:40;;;;;;;8.75;1.67;;;;;;;;;;5078642;27;94149;-73
2022/06/08 11:00:15;;;;;;;4.63;1.80;;;;;;;;;;5078459;27;93380;-72
2022/06/08 11:02:43;;;;;;;11.50;2.00;;;;;;;;;;5078153;27;92447;-73
2022/06/08 11:05:28;;;;;;;12.65;2.20;;;;;;;;;;5078933;27;94106;-72
2022/06/08 11:08:01;;;;;;;9.60;1.83;;;;;;;;;;5078202;27;94493;-73
2022/06/08 11:10:53;;;;;;;9.73;2.50;;;;;;;;;;5080931;27;92381;-73
2022/06/08 11:13:23;;;;;;;10.25;1.90;;;;;;;;;;5075728;27;95813;-73
2022/06/08 11:15:52;;;;;;;13.27;2.13;;;;;;;;;;5076876;27;92520;-72
2022/06/08 11:18:18;;;;;;;8.77;1.60;;;;;;;;;;5077544;27;93354;-73
2022/06/08 11:20:52;;;;;;;10.15;2.55;;;;;;;;;;5066884;27;93240;-73
2022/06/08 11:23:26;;;;;;;12.02;2.42;;;;;;;;;;5057858;27;92441;-73
2022/06/08 11:26:12;;;;;;;12.55;2.58;;;;;;;;;;5057609;27;94233;-73
2022/06/08 11:28:44;;;;;;;6.47;2.05;;;;;;;;;;5056446;27;92954;-72
2022/06/08 11:31:26;;;;;;;8.75;2.08;;;;;;;;;;5056176;27;91945;-73
2022/06/08 11:33:55;;;;;;;10.50;2.97;;;;;;;;;;5060170;27;92412;-73
2022/06/08 11:36:31;;;;;;;13.20;3.15;;;;;;;;;;5055780;27;92441;-73
2022/06/08 11:39:01;;;;;;;17.75;2.50;;;;;;;;;;5055830;27;94734;-73
2022/06/08 11:41:32;;;;;;;13.87;2.80;;;;;;;;;;5056715;27;94432;-73
2022/06/08 11:44:13;;;;;;;11.77;2.80;;;;;;;;;;5057331;27;92453;-73
2022/06/08 11:46:45;;;;;;;13.05;2.25;;;;;;;;;;5056834;27;93320;-73
2022/06/08 11:49:32;;;;;;;10.48;2.90;;;;;;;;;;5056871;27;93423;-73
2022/06/08 11:51:59;;;;;;;13.40;3.42;;;;;;;;;;5056603;27;92456;-73
2022/06/08 11:54:27;;;;;;;10.60;3.17;;;;;;;;;;5057128;27;92998;-73
2022/06/08 11:56:57;;;;;;;14.48;3.50;;;;;;;;;;5060594;27;93666;-73
2022/06/08 11:59:23;;;;;;;9.63;3.15;;;;;;;;;;5056744;27;92457;-73
2022/06/08 12:01:54;;;;;;;11.88;3.78;;;;;;;;;;5055681;27;94254;-72
2022/06/08 12:04:24;;;;;;;23.02;8.73;;;;;;;;;;5055168;27;95054;-73
2022/06/08 12:06:51;;;;;;;20.27;7.00;;;;;;;;;;5038142;27;95586;-73
2022/06/08 12:09:21;;;;;;;9.40;3.53;;;;;;;;;;5056360;27;93537;-73
2022/06/08 12:11:49;;;;;;;15.65;5.38;;;;;;;;;;5055617;27;92434;-73
2022/06/08 12:14:16;;;;;;;7.82;3.42;;;;;;;;;;5056579;27;93210;-73
2022/06/08 12:16:52;;;;;;;7.30;3.25;;;;;;;;;;5041855;27;93427;-73
2022/06/08 12:19:20;;;;;;;10.90;3.53;;;;;;;;;;5057192;27;92966;-73
2022/06/08 12:21:48;;;;;;;11.00;3.70;;;;;;;;;;5055681;27;97167;-73
2022/06/08 12:24:18;;;;;;;13.70;3.92;;;;;;;;;;5056838;27;92384;-73
2022/06/08 12:26:51;;;;;;;13.30;3.63;;;;;;;;;;5056764;27;94226;-72
2022/06/08 12:29:21;;;;;;;11.80;3.70;;;;;;;;;;5036011;27;95907;-72
2022/06/08 12:31:58;;;;;;;11.18;3.92;;;;;;;;;;5056288;27;92457;-73
2022/06/08 12:34:26;;;;;;;9.65;3.33;;;;;;;;;;5056142;27;93246;-72
2022/06/08 12:36:53;;;;;;;8.55;3.40;;;;;;;;;;5055093;27;93465;-73
2022/06/08 12:39:24;;;;;;;11.68;4.03;;;;;;;;;;5059104;27;92410;-75
2022/06/08 12:41:51;;;;;;;11.43;3.55;;;;;;;;;;5056269;27;94550;-73
2022/06/08 12:44:28;;;;;;;12.95;3.97;;;;;;;;;;5037952;27;93314;-73
2022/06/08 12:46:59;;;;;;;11.68;3.50;;;;;;;;;;5055814;27;94322;-73
2022/06/08 12:49:27;;;;;;;17.63;3.92;;;;;;;;;;5055943;27;93467;-73
2022/06/08 12:51:57;;;;;;;10.30;3.60;;;;;;;;;;5054842;27;92451;-74
2022/06/08 12:54:28;;;;;;;9.32;3.65;;;;;;;;;;5054766;27;94749;-74
2022/06/08 12:56:57;;;;;;;14.60;3.65;;;;;;;;;;5055612;27;93102;-72
2022/06/08 12:59:23;;;;;;;8.55;3.20;;;;;;;;;;5055712;27;92388;-73
2022/06/08 13:02:21;;;;;;;11.73;3.88;;;;;;;;;;5058657;27;93136;-73
2022/06/08 13:04:49;;;;;;;9.45;3.10;;;;;;;;;;5055630;27;92718;-73
2022/06/08 13:07:29;;;;;;;11.30;3.42;;;;;;;;;;5054789;27;93223;-74
2022/06/08 13:09:55;;;;;;;7.82;3.30;;;;;;;;;;5055402;27;93609;-74
2022/06/08 13:12:23;;;;;;;7.28;3.13;;;;;;;;;;5055868;27;91629;-73
2022/06/08 13:14:50;;;;;;;6.05;2.60;;;;;;;;;;5055479;27;92834;-73
2022/06/08 13:17:16;;;;;;;6.45;2.63;;;;;;;;;;5055233;27;93221;-73
2022/06/08 13:19:43;;;;;;;7.88;2.88;;;;;;;;;;5053479;27;94906;-74
2022/06/08 13:22:10;;;;;;;12.65;3.13;;;;;;;;;;5055203;27;96518;-74
2022/06/08 13:24:36;;;;;;;5.50;2.55;;;;;;;;;;5058626;27;94494;-73
2022/06/08 13:27:05;;;;;;;8.75;2.35;;;;;;;;;;5037828;27;92406;-73
2022/06/08 13:29:32;;;;;;;10.45;2.40;;;;;;;;;;5036757;27;92619;-74
2022/06/08 13:31:59;;;;;;;4.15;2.13;;;;;;;;;;5037868;27;92500;-73
2022/06/08 13:34:25;;;;;;;4.57;2.00;;;;;;;;;;5055200;27;92887;-74
2022/06/08 13:36:53;;;;;;;6.20;2.17;;;;;;;;;;5054378;27;92392;-73
2022/06/08 13:39:24;;;;;;;4.75;1.83;;;;;;;;;;5054288;27;92471;-74
2022/06/08 13:41:53;;;;;;;2.72;1.90;;;;;;;;;;5055268;27;94391;-74
2022/06/08 13:44:30;;;;;;;2.67;2.15;;;;;;;;;;5053729;27;98658;-74
2022/06/08 13:47:05;;;;;;;4.43;2.00;;;;;;;;;;5057994;27;92445;-73
2022/06/08 13:49:33;;;;;;;5.18;2.55;;;;;;;;;;5055012;27;93496;-74
2022/06/08 13:51:59;;;;;;;5.63;1.95;;;;;;;;;;5054329;27;92469;-74
2022/06/08 13:54:36;;;;;;;7.25;2.40;;;;;;;;;;5054686;27;92906;-73
2022/06/08 13:57:05;;;;;;;5.90;2.08;;;;;;;;;;5054629;27;93547;-74
2022/06/08 13:59:33;;;;;;;5.45;2.05;;;;;;;;;;5053812;27;92434;-74
2022/06/08 14:02:00;;;;;;;3.83;2.10;;;;;;;;;;5055450;27;92950;-73
2022/06/08 14:04:28;;;;;;;2.97;1.85;;;;;;;;;;5054763;27;93100;-73
2022/06/08 14:15:20;;;;;;;5.10;2.10;;;;;;;;;;5054652;27;94234;-74
2022/06/08 14:17:51;;;;;;;2.50;2.13;;;;;;;;;;5055310;27;93263;-74
2022/06/08 14:20:22;;;;;;;4.18;2.10;;;;;;;;;;5053138;27;92954;-73
2022/06/08 14:22:48;;;;;;;4.55;2.47;;;;;;;;;;5054543;27;93210;-74
2022/06/08 14:25:15;;;;;;;4.38;2.53;;;;;;;;;;5034534;28;94406;-74
2022/06/08 14:27:42;;;;;;;4.93;2.22;;;;;;;;;;5034265;28;91737;-73
2022/06/08 14:30:12;;;;;;;4.82;2.25;;;;;;;;;;5037104;28;92431;-73
2022/06/08 14:32:41;;;;;;;3.75;2.25;;;;;;;;;;5034631;28;92471;-74
2022/06/08 14:35:12;;;;;;;4.32;2.65;;;;;;;;;;5037653;27;96008;-74
2022/06/08 14:37:59;;;;;;;4.30;2.17;;;;;;;;;;5054604;27;93022;-74
2022/06/08 14:40:28;;;;;;;3.10;2.35;;;;;;;;;;5054101;27;92455;-74
2022/06/08 14:42:54;;;;;;;3.50;2.40;;;;;;;;;;5054281;27;92916;-73
2022/06/08 14:45:21;;;;;;;3.10;2.33;;;;;;;;;;5054546;27;94598;-73
2022/06/08 14:47:48;;;;;;;3.85;2.40;;;;;;;;;;5054742;27;92423;-73
2022/06/08 14:50:18;;;;;;;4.90;3.40;;;;;;;;;;5053557;27;93640;-74
2022/06/08 14:52:45;;;;;;;11.07;3.03;;;;;;;;;;5057475;27;92546;-73
2022/06/08 14:58:00;;;;;;;12.70;3.00;;;;;;;;;;5054430;27;94308;-73
2022/06/08 15:00:27;;;;;;;4.10;2.83;;;;;;;;;;5052418;27;94932;-74
2022/06/08 15:02:54;;;;;;;9.13;3.35;;;;;;;;;;5054667;27;95832;-73
2022/06/08 15:05:23;;;;;;;3.95;3.38;;;;;;;;;;5052821;27;93384;-74
2022/06/08 15:07:50;;;;;;;4.30;3.47;;;;;;;;;;5053808;27;92529;-73
2022/06/08 15:10:17;;;;;;;3.95;3.20;;;;;;;;;;5055356;27;93251;-74